Time;durP1;ratioP1;P1;durP2;ratioP2;P2;SDS_P1;SDS_P2;PMS_P1;PMS_P2;Temp;Humidity;BMP_temperature;BMP_pressure;BME280_temperature;BME280_humidity;BME280_pressure;Samples;Min_cycle;Max_cycle;Signal;HPM_P1;HPM_P2
2023/07/11 00:01:13;;;;;;;16.87;15.30;;;;;;;;;;5171169;23;20648;-85
2023/07/11 00:03:41;;;;;;;16.07;14.63;;;;;;;;;;4981575;23;20524;-86
2023/07/11 00:06:10;;;;;;;15.17;13.57;;;;;;;;;;4965546;28;20436;-86
2023/07/11 00:08:38;;;;;;;14.20;12.97;;;;;;;;;;5181330;23;20473;-87
2023/07/11 00:11:09;;;;;;;13.97;12.67;;;;;;;;;;4975940;28;20428;-88
2023/07/11 00:16:08;;;;;;;14.13;13.03;;;;;;;;;;4953373;29;20517;-89
2023/07/11 00:18:38;;;;;;;13.60;12.30;;;;;;;;;;4959934;29;20440;-86
2023/07/11 00:21:05;;;;;;;14.07;12.97;;;;;;;;;;4944348;29;20443;-87
2023/07/11 00:23:33;;;;;;;14.03;12.97;;;;;;;;;;4950907;29;20417;-86
2023/07/11 00:26:01;;;;;;;13.37;12.40;;;;;;;;;;4951637;29;20790;-87
2023/07/11 00:28:29;;;;;;;14.23;13.03;;;;;;;;;;4939874;29;20428;-80
2023/07/11 00:30:56;;;;;;;13.73;12.43;;;;;;;;;;4936362;29;20428;-87
2023/07/11 00:33:24;;;;;;;13.90;12.70;;;;;;;;;;4943347;29;20435;-80
2023/07/11 00:35:52;;;;;;;12.07;11.07;;;;;;;;;;4944077;29;20481;-85
2023/07/11 00:38:20;;;;;;;14.13;12.80;;;;;;;;;;4951018;28;20454;-88
2023/07/11 00:40:50;;;;;;;12.63;11.60;;;;;;;;;;4950009;29;20452;-89
2023/07/11 00:43:31;;;;;;;13.53;12.43;;;;;;;;;;4958845;28;20408;-85
2023/07/11 00:46:12;;;;;;;13.20;12.10;;;;;;;;;;4941161;29;20590;-87
2023/07/11 00:48:47;;;;;;;12.90;12.00;;;;;;;;;;4947545;29;20453;-87
2023/07/11 00:51:18;;;;;;;13.60;12.40;;;;;;;;;;4940595;29;20436;-84
2023/07/11 00:53:46;;;;;;;13.00;11.93;;;;;;;;;;4950278;29;20449;-89
2023/07/11 00:56:16;;;;;;;13.87;12.67;;;;;;;;;;4943003;29;20456;-87
2023/07/11 00:58:45;;;;;;;14.17;12.93;;;;;;;;;;4942028;29;20440;-87
2023/07/11 01:01:13;;;;;;;11.97;10.93;;;;;;;;;;4944421;29;20471;-82
2023/07/11 01:03:41;;;;;;;15.83;12.50;;;;;;;;;;4943911;29;20424;-81
2023/07/11 01:06:12;;;;;;;13.07;12.07;;;;;;;;;;4944743;29;20428;-88
2023/07/11 01:08:41;;;;;;;13.67;12.37;;;;;;;;;;4944885;29;20855;-90
2023/07/11 01:11:09;;;;;;;15.63;14.27;;;;;;;;;;4945768;28;20450;-89
2023/07/11 01:13:42;;;;;;;13.67;12.57;;;;;;;;;;4944322;29;20460;-88
2023/07/11 01:16:10;;;;;;;15.00;13.80;;;;;;;;;;4944751;29;20433;-83
2023/07/11 01:18:38;;;;;;;13.70;12.50;;;;;;;;;;4944363;29;20452;-88
2023/07/11 01:21:08;;;;;;;14.50;13.13;;;;;;;;;;4939920;29;20481;-87
2023/07/11 01:23:37;;;;;;;15.13;13.63;;;;;;;;;;4945392;29;20443;-85
2023/07/11 01:26:06;;;;;;;14.67;13.40;;;;;;;;;;4943525;29;20473;-87
2023/07/11 01:28:34;;;;;;;15.40;14.20;;;;;;;;;;4944866;29;20450;-87
2023/07/11 01:31:03;;;;;;;14.80;13.40;;;;;;;;;;4944109;29;20504;-86
2023/07/11 01:33:31;;;;;;;13.23;12.10;;;;;;;;;;5247334;23;20459;-87
2023/07/11 01:36:00;;;;;;;14.33;13.13;;;;;;;;;;4963879;28;20443;-85
2023/07/11 01:38:28;;;;;;;15.40;14.17;;;;;;;;;;5469628;23;20467;-84
2023/07/11 01:40:56;;;;;;;15.07;13.63;;;;;;;;;;5420658;23;20466;-83
2023/07/11 01:43:24;;;;;;;14.83;13.63;;;;;;;;;;5052336;23;20489;-87
2023/07/11 01:45:52;;;;;;;15.73;14.13;;;;;;;;;;5048295;23;20508;-85
2023/07/11 01:51:00;;;;;;;15.80;14.37;;;;;;;;;;4998134;23;20488;-88
2023/07/11 01:53:27;;;;;;;14.87;13.47;;;;;;;;;;5212279;23;20461;-88
2023/07/11 01:58:39;;;;;;;14.87;13.60;;;;;;;;;;5049799;23;20488;-84
2023/07/11 02:03:42;;;;;;;16.17;14.77;;;;;;;;;;5020514;23;20488;-85
2023/07/11 02:06:11;;;;;;;15.10;14.00;;;;;;;;;;5084345;23;20576;-88
2023/07/11 02:08:39;;;;;;;14.83;13.67;;;;;;;;;;4946824;29;20417;-86
2023/07/11 02:11:08;;;;;;;16.00;14.30;;;;;;;;;;4945863;29;20450;-86
2023/07/11 02:13:37;;;;;;;15.33;14.00;;;;;;;;;;4942244;29;20412;-84
2023/07/11 02:16:05;;;;;;;15.10;13.70;;;;;;;;;;5024315;23;20524;-88
2023/07/11 02:18:34;;;;;;;15.27;13.87;;;;;;;;;;4961502;29;20432;-88
2023/07/11 02:23:36;;;;;;;15.43;14.07;;;;;;;;;;4930825;29;20824;-86
2023/07/11 02:26:05;;;;;;;14.77;13.67;;;;;;;;;;4935432;29;20410;-85
2023/07/11 02:31:15;;;;;;;16.00;14.60;;;;;;;;;;5152215;23;20508;-89
2023/07/11 02:33:48;;;;;;;15.80;13.30;;;;;;;;;;5068077;23;20582;-86
2023/07/11 02:36:18;;;;;;;15.27;13.97;;;;;;;;;;5352944;23;20448;-86
2023/07/11 02:38:49;;;;;;;16.00;14.60;;;;;;;;;;5550830;23;20427;-87
2023/07/11 02:41:18;;;;;;;16.47;15.20;;;;;;;;;;5704482;23;20785;-88
2023/07/11 02:43:49;;;;;;;15.87;14.37;;;;;;;;;;5349740;23;21437;-86
2023/07/11 02:49:00;;;;;;;15.93;14.67;;;;;;;;;;5183436;23;20506;-87
2023/07/11 03:02:10;;;;;;;17.77;16.27;;;;;;;;;;5371381;23;21896;-82
2023/07/11 03:04:38;;;;;;;16.23;14.90;;;;;;;;;;5396849;23;20733;-85
2023/07/11 03:07:05;;;;;;;16.73;15.33;;;;;;;;;;5028117;23;20460;-88
2023/07/11 03:09:36;;;;;;;17.37;15.87;;;;;;;;;;5642767;23;21530;-84
2023/07/11 03:12:04;;;;;;;16.87;15.27;;;;;;;;;;4978688;28;20554;-87
2023/07/11 03:24:49;;;;;;;16.07;14.70;;;;;;;;;;5044437;23;20440;-88
2023/07/11 03:27:17;;;;;;;17.67;15.90;;;;;;;;;;5202415;23;20467;-88
2023/07/11 03:29:47;;;;;;;17.67;15.63;;;;;;;;;;4976870;28;20491;-85
2023/07/11 03:34:53;;;;;;;17.30;15.80;;;;;;;;;;5903617;23;21453;-88
2023/07/11 03:37:33;;;;;;;18.20;16.37;;;;;;;;;;5448384;23;20485;-86
2023/07/11 03:40:02;;;;;;;19.77;17.57;;;;;;;;;;5384114;23;20834;-86
2023/07/11 03:42:32;;;;;;;18.27;16.37;;;;;;;;;;5498667;23;20470;-88
2023/07/11 03:50:32;;;;;;;17.73;16.03;;;;;;;;;;5227975;23;20462;-86
2023/07/11 03:53:01;;;;;;;19.37;17.57;;;;;;;;;;5096415;23;21520;-84
2023/07/11 03:55:38;;;;;;;17.37;15.83;;;;;;;;;;4954366;29;20431;-84
2023/07/11 04:00:42;;;;;;;17.53;15.80;;;;;;;;;;5065039;23;20483;-84
2023/07/11 04:03:12;;;;;;;16.60;14.70;;;;;;;;;;5340042;23;20448;-88
2023/07/11 04:05:42;;;;;;;18.90;17.10;;;;;;;;;;5043884;23;20431;-84
2023/07/11 04:08:09;;;;;;;21.33;19.47;;;;;;;;;;5350190;23;20467;-84
2023/07/11 04:10:37;;;;;;;19.90;18.10;;;;;;;;;;4961018;28;20454;-83
2023/07/11 04:13:04;;;;;;;20.83;18.93;;;;;;;;;;4946037;29;20433;-87
2023/07/11 04:15:31;;;;;;;19.80;18.10;;;;;;;;;;4998973;23;20580;-88
2023/07/11 04:17:58;;;;;;;16.83;15.37;;;;;;;;;;5057524;23;20595;-84
2023/07/11 04:20:26;;;;;;;18.00;16.27;;;;;;;;;;4970391;28;20522;-85
2023/07/11 04:22:55;;;;;;;16.97;15.47;;;;;;;;;;4961892;28;20453;-86
2023/07/11 04:25:22;;;;;;;15.73;14.53;;;;;;;;;;4972368;28;20418;-82
2023/07/11 04:27:50;;;;;;;15.83;14.33;;;;;;;;;;4964392;28;20475;-83
2023/07/11 04:30:18;;;;;;;14.93;13.70;;;;;;;;;;4955206;28;20683;-85
2023/07/11 04:32:51;;;;;;;14.57;13.33;;;;;;;;;;4960453;28;20416;-86
2023/07/11 04:35:19;;;;;;;14.17;12.87;;;;;;;;;;4963044;29;20641;-88
2023/07/11 04:37:46;;;;;;;13.70;12.60;;;;;;;;;;4968696;28;20850;-82
2023/07/11 04:40:15;;;;;;;13.87;12.77;;;;;;;;;;4981401;23;20532;-82
2023/07/11 04:42:42;;;;;;;14.67;13.37;;;;;;;;;;4971042;28;20420;-84
2023/07/11 04:45:10;;;;;;;15.73;14.10;;;;;;;;;;4965408;28;20447;-86
2023/07/11 04:47:37;;;;;;;14.87;13.67;;;;;;;;;;4964613;28;20512;-86
2023/07/11 04:50:05;;;;;;;13.63;12.27;;;;;;;;;;4960057;29;20424;-85
2023/07/11 04:52:33;;;;;;;16.53;12.63;;;;;;;;;;4963044;28;20496;-86
2023/07/11 04:55:02;;;;;;;14.33;12.70;;;;;;;;;;4957291;28;20508;-83
2023/07/11 04:57:29;;;;;;;13.97;12.87;;;;;;;;;;4963848;28;20445;-86
2023/07/11 04:59:58;;;;;;;13.67;12.47;;;;;;;;;;4964237;28;20487;-82
2023/07/11 05:02:26;;;;;;;12.40;11.23;;;;;;;;;;4965156;28;20453;-83
2023/07/11 05:04:54;;;;;;;13.80;12.60;;;;;;;;;;4957184;28;20476;-81
2023/07/11 05:07:22;;;;;;;12.83;11.83;;;;;;;;;;4964538;29;20748;-88
2023/07/11 05:09:49;;;;;;;12.70;11.10;;;;;;;;;;4961247;28;21121;-82
2023/07/11 05:12:20;;;;;;;11.47;10.37;;;;;;;;;;4956330;28;20416;-83
2023/07/11 05:14:48;;;;;;;12.03;9.77;;;;;;;;;;4960857;29;20412;-82
2023/07/11 05:17:15;;;;;;;9.00;8.40;;;;;;;;;;4964056;28;20472;-84
2023/07/11 05:19:42;;;;;;;10.00;9.20;;;;;;;;;;4963370;28;20423;-83
2023/07/11 05:22:10;;;;;;;11.00;10.10;;;;;;;;;;4969110;28;20702;-81
2023/07/11 05:24:37;;;;;;;10.20;8.70;;;;;;;;;;4976849;28;20530;-83
2023/07/11 05:27:04;;;;;;;9.30;8.40;;;;;;;;;;4963702;28;20680;-85
2023/07/11 05:29:33;;;;;;;9.30;8.60;;;;;;;;;;4957682;28;20534;-82
2023/07/11 05:32:00;;;;;;;9.10;8.27;;;;;;;;;;4955354;29;20733;-83
2023/07/11 05:34:28;;;;;;;9.23;8.43;;;;;;;;;;4962857;28;20424;-85
2023/07/11 05:36:55;;;;;;;9.47;8.63;;;;;;;;;;4962294;28;20411;-84
2023/07/11 05:39:23;;;;;;;8.63;7.90;;;;;;;;;;4957159;28;20464;-84
2023/07/11 05:41:53;;;;;;;9.43;8.60;;;;;;;;;;4956249;28;20447;-88
2023/07/11 05:44:21;;;;;;;9.00;8.27;;;;;;;;;;4961407;29;20460;-88
2023/07/11 05:46:50;;;;;;;8.33;7.63;;;;;;;;;;4959922;29;20851;-86
2023/07/11 05:49:18;;;;;;;8.73;7.90;;;;;;;;;;4960537;28;20457;-84
2023/07/11 05:51:45;;;;;;;8.83;8.00;;;;;;;;;;4969634;28;20443;-83
2023/07/11 05:54:13;;;;;;;9.03;8.20;;;;;;;;;;4958313;28;20479;-86
2023/07/11 05:56:41;;;;;;;8.57;7.70;;;;;;;;;;4962728;28;20498;-88
2023/07/11 05:59:08;;;;;;;8.20;7.50;;;;;;;;;;4968868;28;20428;-81
2023/07/11 06:01:36;;;;;;;8.70;8.00;;;;;;;;;;4964318;28;20443;-83
2023/07/11 06:04:12;;;;;;;7.83;7.23;;;;;;;;;;4957326;28;20425;-82
2023/07/11 06:06:41;;;;;;;10.27;9.37;;;;;;;;;;4960186;28;20886;-85
2023/07/11 06:09:18;;;;;;;8.40;7.60;;;;;;;;;;4957267;29;20715;-83
2023/07/11 06:11:49;;;;;;;7.90;7.30;;;;;;;;;;4957921;28;20422;-85
2023/07/11 06:14:18;;;;;;;7.27;6.70;;;;;;;;;;4964042;29;20702;-85
2023/07/11 06:16:47;;;;;;;8.17;7.50;;;;;;;;;;4957302;29;20553;-81
2023/07/11 06:19:17;;;;;;;9.00;8.20;;;;;;;;;;4963273;28;20467;-85
2023/07/11 06:21:45;;;;;;;8.70;7.43;;;;;;;;;;4970419;28;20494;-84
2023/07/11 06:24:14;;;;;;;8.03;7.27;;;;;;;;;;4965382;29;20458;-83
2023/07/11 06:26:44;;;;;;;7.30;6.80;;;;;;;;;;4968651;28;20422;-80
2023/07/11 06:29:12;;;;;;;7.03;6.50;;;;;;;;;;4969068;28;20424;-81
2023/07/11 06:31:40;;;;;;;6.70;6.00;;;;;;;;;;4965484;28;20444;-85
2023/07/11 06:34:08;;;;;;;7.60;6.90;;;;;;;;;;4964253;28;20428;-81
2023/07/11 06:36:37;;;;;;;7.47;6.70;;;;;;;;;;4969679;29;20460;-84
2023/07/11 06:39:05;;;;;;;6.60;6.10;;;;;;;;;;4967816;28;20489;-81
2023/07/11 06:41:33;;;;;;;7.00;6.40;;;;;;;;;;4963503;28;20467;-83
2023/07/11 06:44:02;;;;;;;7.47;6.97;;;;;;;;;;4966444;28;20423;-88
2023/07/11 06:46:29;;;;;;;8.33;7.63;;;;;;;;;;4969733;28;20528;-81
2023/07/11 06:48:58;;;;;;;7.47;6.73;;;;;;;;;;5090826;23;20758;-85
2023/07/11 06:51:25;;;;;;;7.53;6.87;;;;;;;;;;5001103;28;20423;-86
2023/07/11 06:53:54;;;;;;;7.13;6.63;;;;;;;;;;4996577;28;20452;-86
2023/07/11 06:56:22;;;;;;;7.70;7.00;;;;;;;;;;4989805;28;20465;-82
2023/07/11 06:58:50;;;;;;;7.57;6.87;;;;;;;;;;4988113;28;20786;-85
2023/07/11 07:01:21;;;;;;;6.27;5.70;;;;;;;;;;4990119;28;20705;-85
2023/07/11 07:03:54;;;;;;;6.03;5.63;;;;;;;;;;4991420;28;20443;-88
2023/07/11 07:06:22;;;;;;;7.97;6.80;;;;;;;;;;4981548;28;20420;-84
2023/07/11 07:08:50;;;;;;;7.37;6.70;;;;;;;;;;4975939;28;20456;-86
2023/07/11 07:11:19;;;;;;;6.97;6.57;;;;;;;;;;4988095;28;20456;-83
2023/07/11 07:13:49;;;;;;;9.67;7.10;;;;;;;;;;4984138;28;20765;-86
2023/07/11 07:16:34;;;;;;;7.17;6.47;;;;;;;;;;4987877;28;20448;-82
2023/07/11 07:19:07;;;;;;;6.27;5.80;;;;;;;;;;4985593;28;20472;-87
2023/07/11 07:21:36;;;;;;;6.50;6.00;;;;;;;;;;4989527;28;20491;-84
2023/07/11 07:24:07;;;;;;;7.40;6.80;;;;;;;;;;4996758;28;20448;-85
2023/07/11 07:26:48;;;;;;;12.80;6.50;;;;;;;;;;4981026;28;20474;-84
2023/07/11 07:29:16;;;;;;;6.60;6.20;;;;;;;;;;4986883;28;20447;-84
2023/07/11 07:31:43;;;;;;;6.90;6.40;;;;;;;;;;4985642;28;20451;-85
2023/07/11 07:34:12;;;;;;;5.90;5.60;;;;;;;;;;4985320;28;20450;-82
2023/07/11 07:36:42;;;;;;;6.40;5.90;;;;;;;;;;4985209;28;20434;-86
2023/07/11 07:39:11;;;;;;;5.97;5.67;;;;;;;;;;4981253;28;20512;-80
2023/07/11 07:41:39;;;;;;;6.57;5.97;;;;;;;;;;4979994;28;20671;-81
2023/07/11 07:44:07;;;;;;;8.87;6.60;;;;;;;;;;4984433;28;20495;-82
2023/07/11 07:46:35;;;;;;;6.87;6.27;;;;;;;;;;4977771;28;20475;-86
2023/07/11 07:49:04;;;;;;;5.67;5.37;;;;;;;;;;4982152;28;20456;-81
2023/07/11 07:51:32;;;;;;;5.10;4.60;;;;;;;;;;4975795;28;20463;-81
2023/07/11 07:54:00;;;;;;;6.03;5.40;;;;;;;;;;4979216;28;20449;-83
2023/07/11 07:56:30;;;;;;;5.70;5.40;;;;;;;;;;4984140;28;20579;-80
2023/07/11 07:58:57;;;;;;;6.33;5.73;;;;;;;;;;4984708;28;20508;-84
2023/07/11 08:01:24;;;;;;;5.57;5.20;;;;;;;;;;4985849;28;20476;-84
2023/07/11 08:03:52;;;;;;;6.23;5.83;;;;;;;;;;4986155;28;20448;-79
2023/07/11 08:06:23;;;;;;;4.97;4.77;;;;;;;;;;4979441;28;20453;-82
2023/07/11 08:08:57;;;;;;;5.00;4.70;;;;;;;;;;4977342;28;20461;-83
2023/07/11 08:11:44;;;;;;;5.60;5.10;;;;;;;;;;4982945;28;20456;-86
2023/07/11 08:14:16;;;;;;;6.80;6.20;;;;;;;;;;4986746;28;20468;-85
2023/07/11 08:16:45;;;;;;;6.57;6.10;;;;;;;;;;4997569;28;20535;-85
2023/07/11 08:19:15;;;;;;;6.83;6.10;;;;;;;;;;4997741;28;20463;-83
2023/07/11 08:21:52;;;;;;;6.20;5.80;;;;;;;;;;4993031;28;20463;-85
2023/07/11 08:24:22;;;;;;;7.60;7.10;;;;;;;;;;4988705;28;20444;-85
2023/07/11 08:26:54;;;;;;;5.40;5.03;;;;;;;;;;4978441;28;20440;-84
2023/07/11 08:29:28;;;;;;;4.90;4.67;;;;;;;;;;4982078;28;20644;-86
2023/07/11 08:32:05;;;;;;;5.00;4.80;;;;;;;;;;4969202;28;20520;-84
2023/07/11 08:34:41;;;;;;;5.67;5.27;;;;;;;;;;4963697;28;20499;-83
2023/07/11 08:37:11;;;;;;;4.90;4.60;;;;;;;;;;4979268;28;20452;-83
2023/07/11 08:39:40;;;;;;;6.60;6.03;;;;;;;;;;4987729;28;20688;-84
2023/07/11 08:42:18;;;;;;;5.87;5.37;;;;;;;;;;4980639;28;20839;-80
2023/07/11 08:44:49;;;;;;;5.10;4.80;;;;;;;;;;4973431;28;20516;-84
2023/07/11 08:47:23;;;;;;;4.57;4.30;;;;;;;;;;4977613;28;20468;-85
2023/07/11 08:50:00;;;;;;;5.70;5.33;;;;;;;;;;4980309;28;20518;-83
2023/07/11 08:52:30;;;;;;;4.87;4.57;;;;;;;;;;4980150;28;20458;-85
2023/07/11 08:55:05;;;;;;;5.10;4.70;;;;;;;;;;4975201;28;20512;-84
2023/07/11 08:57:35;;;;;;;5.37;4.80;;;;;;;;;;4981106;28;20480;-85
2023/07/11 09:00:08;;;;;;;5.20;4.80;;;;;;;;;;4981642;28;20420;-83
2023/07/11 09:02:57;;;;;;;4.93;4.70;;;;;;;;;;4992808;28;20512;-85
2023/07/11 09:05:39;;;;;;;5.00;4.60;;;;;;;;;;4984233;28;20503;-84
2023/07/11 09:08:16;;;;;;;5.47;5.00;;;;;;;;;;4979243;28;20488;-83
2023/07/11 09:10:43;;;;;;;4.60;4.30;;;;;;;;;;4965001;28;20445;-82
2023/07/11 09:13:24;;;;;;;4.47;4.17;;;;;;;;;;4973276;28;20440;-82
2023/07/11 09:16:08;;;;;;;4.50;4.30;;;;;;;;;;4986922;28;20444;-86
2023/07/11 09:18:50;;;;;;;4.57;4.27;;;;;;;;;;4990392;28;20428;-84
2023/07/11 09:21:38;;;;;;;3.97;3.70;;;;;;;;;;4974164;28;20483;-84
2023/07/11 09:24:30;;;;;;;4.63;4.23;;;;;;;;;;4982524;28;20446;-86
2023/07/11 09:27:04;;;;;;;6.23;4.23;;;;;;;;;;4972973;28;20503;-83
2023/07/11 09:29:33;;;;;;;4.70;4.30;;;;;;;;;;4970997;28;20499;-83
2023/07/11 09:32:04;;;;;;;5.07;4.77;;;;;;;;;;4968880;28;20445;-85
2023/07/11 09:34:36;;;;;;;4.93;4.57;;;;;;;;;;4973086;28;20459;-84
2023/07/11 09:37:24;;;;;;;4.90;4.60;;;;;;;;;;4976378;28;20447;-86
2023/07/11 09:40:03;;;;;;;5.13;4.63;;;;;;;;;;4963709;28;20493;-84
2023/07/11 09:42:39;;;;;;;4.50;4.20;;;;;;;;;;4972871;28;20570;-86
2023/07/11 09:45:12;;;;;;;3.87;3.67;;;;;;;;;;4970239;28;20452;-84
2023/07/11 09:47:42;;;;;;;5.10;4.70;;;;;;;;;;4976546;28;20503;-85
2023/07/11 09:50:27;;;;;;;4.67;4.33;;;;;;;;;;4984750;28;20464;-87
2023/07/11 09:53:16;;;;;;;4.73;4.43;;;;;;;;;;5013432;23;1426666;-85
2023/07/11 09:56:09;;;;;;;4.50;4.10;;;;;;;;;;4951591;28;20442;-88
2023/07/11 09:58:40;;;;;;;4.10;3.90;;;;;;;;;;4944807;29;20441;-84
2023/07/11 10:01:16;;;;;;;4.10;3.70;;;;;;;;;;4945253;29;20703;-82
2023/07/11 10:03:48;;;;;;;4.50;4.20;;;;;;;;;;4941051;29;20438;-84
2023/07/11 10:06:28;;;;;;;4.80;4.40;;;;;;;;;;4946369;29;20466;-85
2023/07/11 10:09:15;;;;;;;4.10;3.90;;;;;;;;;;4943265;29;20481;-85
2023/07/11 10:11:51;;;;;;;4.77;4.47;;;;;;;;;;4935727;29;20434;-84
2023/07/11 10:14:22;;;;;;;4.27;3.97;;;;;;;;;;4940640;29;20468;-85
2023/07/11 10:16:58;;;;;;;7.30;4.90;;;;;;;;;;4950199;29;20422;-83
2023/07/11 10:19:29;;;;;;;4.47;4.10;;;;;;;;;;4951020;29;20438;-84
2023/07/11 10:22:00;;;;;;;4.93;4.40;;;;;;;;;;4952106;29;20461;-84
2023/07/11 10:24:34;;;;;;;4.73;4.43;;;;;;;;;;4955352;29;20458;-84
2023/07/11 10:27:11;;;;;;;4.47;4.17;;;;;;;;;;4956544;28;20445;-82
2023/07/11 10:29:52;;;;;;;4.83;4.47;;;;;;;;;;4955102;29;20561;-86
2023/07/11 10:32:41;;;;;;;4.60;4.23;;;;;;;;;;4954623;29;20457;-82
2023/07/11 10:35:12;;;;;;;4.13;3.83;;;;;;;;;;4950050;29;20478;-87
2023/07/11 10:37:44;;;;;;;4.33;4.03;;;;;;;;;;4947276;29;20497;-81
2023/07/11 10:40:33;;;;;;;4.70;4.40;;;;;;;;;;4945362;29;21034;-87
2023/07/11 10:43:04;;;;;;;4.43;4.03;;;;;;;;;;4939066;29;20545;-86
2023/07/11 10:45:42;;;;;;;4.10;3.80;;;;;;;;;;4943908;29;20450;-88
2023/07/11 10:48:19;;;;;;;4.80;4.40;;;;;;;;;;4938888;29;20467;-86
2023/07/11 10:50:48;;;;;;;4.57;4.17;;;;;;;;;;4940600;29;20848;-83
2023/07/11 10:53:23;;;;;;;5.03;4.63;;;;;;;;;;4939039;29;20466;-85
2023/07/11 10:55:56;;;;;;;5.10;4.60;;;;;;;;;;4943459;29;20434;-86
2023/07/11 10:58:24;;;;;;;4.20;4.00;;;;;;;;;;4943348;29;20442;-85
2023/07/11 11:01:00;;;;;;;4.97;4.23;;;;;;;;;;4944141;29;20473;-84
2023/07/11 11:03:37;;;;;;;4.70;4.40;;;;;;;;;;4950587;29;20472;-82
2023/07/11 11:06:21;;;;;;;5.10;4.57;;;;;;;;;;4944732;29;20475;-83
2023/07/11 11:09:04;;;;;;;4.97;4.57;;;;;;;;;;4941701;29;20852;-81
2023/07/11 11:11:32;;;;;;;4.60;4.20;;;;;;;;;;4945222;29;20461;-85
2023/07/11 11:14:10;;;;;;;4.40;4.10;;;;;;;;;;4947577;29;20478;-85
2023/07/11 11:16:59;;;;;;;4.13;3.83;;;;;;;;;;4946943;29;20438;-85
2023/07/11 11:19:41;;;;;;;4.93;4.53;;;;;;;;;;4949884;29;20517;-85
2023/07/11 11:22:16;;;;;;;5.07;4.67;;;;;;;;;;4947609;29;20495;-83
2023/07/11 11:25:13;;;;;;;4.07;3.80;;;;;;;;;;4945866;29;20434;-86
2023/07/11 11:27:50;;;;;;;4.60;4.23;;;;;;;;;;4947742;29;20476;-82
2023/07/11 11:30:29;;;;;;;4.50;4.10;;;;;;;;;;4940872;29;20461;-82
2023/07/11 11:33:06;;;;;;;4.33;4.00;;;;;;;;;;4942245;29;20939;-85
2023/07/11 11:35:47;;;;;;;5.17;4.67;;;;;;;;;;4944853;29;20520;-83
2023/07/11 11:38:17;;;;;;;5.37;4.70;;;;;;;;;;4944645;29;20440;-85
2023/07/11 11:40:47;;;;;;;4.27;3.97;;;;;;;;;;4945175;29;20424;-82
2023/07/11 11:43:15;;;;;;;4.77;4.47;;;;;;;;;;4920006;29;20553;-85
2023/07/11 11:45:54;;;;;;;4.27;4.00;;;;;;;;;;4946775;29;20497;-87
2023/07/11 11:48:28;;;;;;;4.77;4.50;;;;;;;;;;4939753;29;20417;-86
2023/07/11 11:50:59;;;;;;;7.27;5.10;;;;;;;;;;4944669;29;20448;-86
2023/07/11 11:53:43;;;;;;;5.40;4.90;;;;;;;;;;4942678;29;20466;-85
2023/07/11 11:56:17;;;;;;;4.70;4.30;;;;;;;;;;4941147;29;20476;-86
2023/07/11 11:59:00;;;;;;;4.77;4.37;;;;;;;;;;4939690;29;20409;-84
2023/07/11 12:01:35;;;;;;;4.97;4.57;;;;;;;;;;4943318;29;20511;-83
2023/07/11 12:04:22;;;;;;;5.07;4.63;;;;;;;;;;4945954;29;20718;-85
2023/07/11 12:06:55;;;;;;;5.10;4.70;;;;;;;;;;4942563;29;20458;-85
2023/07/11 12:09:37;;;;;;;4.67;4.27;;;;;;;;;;4948009;29;20446;-85
2023/07/11 12:12:10;;;;;;;4.80;4.50;;;;;;;;;;4946786;29;20471;-82
2023/07/11 12:14:39;;;;;;;4.90;4.50;;;;;;;;;;4946309;29;20420;-83
2023/07/11 12:17:29;;;;;;;4.93;4.63;;;;;;;;;;4945795;29;20510;-87
2023/07/11 12:20:02;;;;;;;5.27;4.87;;;;;;;;;;4945631;29;20509;-89
2023/07/11 12:22:31;;;;;;;5.10;4.50;;;;;;;;;;4945253;29;20494;-87
2023/07/11 12:25:01;;;;;;;6.50;5.30;;;;;;;;;;4945219;29;20459;-83
2023/07/11 12:27:35;;;;;;;5.20;4.50;;;;;;;;;;4946164;29;20446;-85
2023/07/11 12:30:28;;;;;;;4.73;4.43;;;;;;;;;;4946156;29;20501;-89
2023/07/11 12:33:15;;;;;;;5.03;4.73;;;;;;;;;;4939642;29;20473;-86
2023/07/11 12:35:45;;;;;;;4.80;4.40;;;;;;;;;;4943819;29;20437;-87
2023/07/11 12:38:25;;;;;;;5.70;5.20;;;;;;;;;;4943240;29;20751;-85
2023/07/11 12:41:05;;;;;;;5.10;4.70;;;;;;;;;;4947415;29;20453;-85
2023/07/11 12:43:34;;;;;;;4.80;4.40;;;;;;;;;;4945600;29;20567;-85
2023/07/11 12:46:22;;;;;;;4.63;4.20;;;;;;;;;;4945696;29;20469;-85
2023/07/11 12:48:50;;;;;;;5.70;5.20;;;;;;;;;;4945701;29;20509;-82
2023/07/11 12:51:34;;;;;;;5.07;4.67;;;;;;;;;;4949115;29;20513;-86
2023/07/11 12:54:06;;;;;;;5.03;4.53;;;;;;;;;;4950649;29;20458;-86
2023/07/11 12:56:35;;;;;;;6.70;4.53;;;;;;;;;;4955115;28;20458;-86
2023/07/11 12:59:02;;;;;;;4.90;4.40;;;;;;;;;;4951410;29;20429;-85
2023/07/11 13:01:32;;;;;;;4.40;4.00;;;;;;;;;;4947727;29;20454;-88
2023/07/11 13:04:02;;;;;;;4.60;4.30;;;;;;;;;;4947642;29;20845;-90
2023/07/11 13:06:32;;;;;;;4.90;4.50;;;;;;;;;;4946756;29;20521;-87
2023/07/11 13:09:12;;;;;;;5.20;4.80;;;;;;;;;;4945032;29;20422;-87
2023/07/11 13:11:42;;;;;;;4.80;4.50;;;;;;;;;;4946388;29;20500;-85
2023/07/11 13:14:14;;;;;;;4.50;4.20;;;;;;;;;;4950303;29;20446;-86
2023/07/11 13:16:44;;;;;;;5.93;5.33;;;;;;;;;;4955641;29;20434;-87
2023/07/11 13:19:16;;;;;;;4.60;4.30;;;;;;;;;;4956115;28;20432;-86
2023/07/11 13:21:45;;;;;;;4.77;4.47;;;;;;;;;;4952015;29;20436;-88
2023/07/11 13:24:13;;;;;;;4.40;4.10;;;;;;;;;;4947722;29;20472;-90
2023/07/11 13:26:44;;;;;;;4.60;4.30;;;;;;;;;;4945590;29;20454;-88
2023/07/11 13:29:22;;;;;;;4.23;3.87;;;;;;;;;;4946774;29;20417;-88
2023/07/11 13:32:00;;;;;;;4.60;4.20;;;;;;;;;;4944535;29;20450;-86
2023/07/11 13:34:34;;;;;;;5.20;4.80;;;;;;;;;;4947240;29;20462;-87
2023/07/11 13:37:08;;;;;;;6.23;5.63;;;;;;;;;;4943713;29;20509;-89
2023/07/11 13:39:43;;;;;;;5.20;4.77;;;;;;;;;;4943064;29;20424;-88
2023/07/11 13:42:14;;;;;;;4.50;4.10;;;;;;;;;;4946697;29;20739;-85
2023/07/11 13:44:50;;;;;;;5.27;4.77;;;;;;;;;;4954461;28;20507;-85
2023/07/11 13:47:43;;;;;;;4.80;4.40;;;;;;;;;;4954723;29;20429;-87
2023/07/11 13:50:17;;;;;;;5.20;4.80;;;;;;;;;;4948697;29;20442;-83
2023/07/11 13:53:04;;;;;;;4.13;3.73;;;;;;;;;;4942046;29;20424;-84
2023/07/11 13:55:47;;;;;;;4.43;4.00;;;;;;;;;;4941985;29;20524;-82
2023/07/11 13:58:15;;;;;;;4.00;3.80;;;;;;;;;;4941903;29;20525;-84
2023/07/11 14:00:46;;;;;;;4.73;4.30;;;;;;;;;;4942781;29;20481;-84
2023/07/11 14:03:25;;;;;;;4.27;3.93;;;;;;;;;;4942363;29;20463;-82
2023/07/11 14:06:00;;;;;;;4.70;4.40;;;;;;;;;;4942301;29;20418;-84
2023/07/11 14:08:39;;;;;;;4.33;4.03;;;;;;;;;;4924622;29;20438;-81
2023/07/11 14:11:24;;;;;;;5.83;4.57;;;;;;;;;;4937806;29;20451;-84
2023/07/11 14:13:51;;;;;;;5.90;4.20;;;;;;;;;;4940576;29;20658;-85
2023/07/11 14:16:22;;;;;;;4.57;4.27;;;;;;;;;;4942788;29;20443;-87
2023/07/11 14:18:50;;;;;;;4.43;4.10;;;;;;;;;;4948199;28;20432;-83
2023/07/11 14:21:20;;;;;;;5.10;4.67;;;;;;;;;;4938915;29;20525;-86
2023/07/11 14:23:50;;;;;;;4.60;4.30;;;;;;;;;;4938555;29;20495;-83
2023/07/11 14:26:18;;;;;;;4.70;4.33;;;;;;;;;;4939091;29;20436;-84
2023/07/11 14:28:47;;;;;;;4.73;4.37;;;;;;;;;;4942126;29;20409;-85
2023/07/11 14:31:19;;;;;;;4.50;4.20;;;;;;;;;;4941857;29;20680;-84
2023/07/11 14:33:46;;;;;;;4.27;4.07;;;;;;;;;;4940778;29;20425;-83
2023/07/11 14:36:14;;;;;;;4.93;4.63;;;;;;;;;;4940043;29;20671;-83
2023/07/11 14:38:42;;;;;;;4.53;4.23;;;;;;;;;;4937569;29;20627;-84
2023/07/11 14:41:11;;;;;;;5.77;5.23;;;;;;;;;;4939692;29;20450;-83
2023/07/11 14:43:39;;;;;;;5.20;4.90;;;;;;;;;;4943584;29;20467;-84
2023/07/11 14:46:10;;;;;;;4.40;4.10;;;;;;;;;;4942383;29;20426;-83
2023/07/11 14:48:38;;;;;;;4.47;4.10;;;;;;;;;;4928480;29;20442;-84
2023/07/11 14:51:09;;;;;;;4.60;4.20;;;;;;;;;;4944374;29;20809;-88
2023/07/11 14:53:40;;;;;;;4.37;4.07;;;;;;;;;;4928883;29;20462;-82
2023/07/11 14:56:17;;;;;;;5.40;4.43;;;;;;;;;;4945345;29;20449;-86
2023/07/11 14:58:56;;;;;;;5.57;5.17;;;;;;;;;;4943731;29;20735;-80
2023/07/11 15:01:25;;;;;;;4.13;3.83;;;;;;;;;;4940678;29;20532;-83
2023/07/11 15:04:11;;;;;;;6.00;4.97;;;;;;;;;;4941387;29;20809;-85
2023/07/11 15:06:59;;;;;;;4.07;3.80;;;;;;;;;;4906388;29;20428;-84
2023/07/11 15:09:46;;;;;;;3.70;3.40;;;;;;;;;;4906779;29;20455;-82
2023/07/11 15:12:19;;;;;;;4.90;4.40;;;;;;;;;;4907622;29;20477;-82
2023/07/11 15:14:50;;;;;;;4.40;4.00;;;;;;;;;;4905315;29;20671;-84
2023/07/11 15:17:23;;;;;;;4.20;3.90;;;;;;;;;;4894821;29;20459;-82
2023/07/11 15:19:56;;;;;;;5.20;4.80;;;;;;;;;;4880447;29;20882;-83
2023/07/11 15:22:29;;;;;;;4.47;4.07;;;;;;;;;;4881823;29;20453;-81
2023/07/11 15:24:57;;;;;;;4.57;4.27;;;;;;;;;;4907711;29;20434;-85
2023/07/11 15:27:25;;;;;;;4.47;4.07;;;;;;;;;;4947287;29;20413;-83
2023/07/11 15:29:56;;;;;;;4.50;4.20;;;;;;;;;;4949067;29;20446;-86
2023/07/11 15:32:27;;;;;;;6.03;4.03;;;;;;;;;;4949407;29;20540;-87
2023/07/11 15:34:58;;;;;;;4.70;4.30;;;;;;;;;;4943718;29;20460;-85
2023/07/11 15:37:27;;;;;;;5.70;4.30;;;;;;;;;;4951989;28;20454;-84
2023/07/11 15:39:57;;;;;;;4.23;3.90;;;;;;;;;;4953590;29;20654;-86
2023/07/11 15:42:27;;;;;;;4.30;4.00;;;;;;;;;;4947701;29;20453;-85
2023/07/11 15:44:59;;;;;;;4.37;3.97;;;;;;;;;;4944445;29;20481;-83
2023/07/11 15:47:28;;;;;;;4.30;4.00;;;;;;;;;;4946348;29;20457;-84
2023/07/11 15:49:58;;;;;;;3.90;3.67;;;;;;;;;;4952384;29;20610;-84
2023/07/11 15:52:26;;;;;;;4.97;4.57;;;;;;;;;;4955095;29;20443;-85
2023/07/11 15:54:56;;;;;;;4.50;4.10;;;;;;;;;;4948196;29;20473;-86